Impacts METAR Board
IDs:

KRNH - New Richmond Muni, WI, US

Updated at: 1100 UTC 21 Jun 2018
Potential Impact None Slight Moderate High
Time 20/23Z 21/00Z 21/01Z 21/02Z 21/03Z 21/04Z 21/05Z 21/06Z 21/07Z 21/08Z 21/09Z 21/10Z 21/11Z
Temp78 76 74 72 70 67 66 65 64 63 63 63 62
Dewpt55 56 58 60 59 59 59 58 57 57 58 58 59
Altim29.84 29.86 29.86 29.85 29.86 29.86 29.86 29.86 29.86 29.86 29.86 29.87 29.88
VIS10 10 10 10 10 10 10 10 10 10 10 10 10
CIG-- 90 90 100 110 -- -- -- -- -- -- -- --
CoverSCTOVCOVCOVCBKNCLRCLRCLRCLRSCTCLRCLRSCT
FltCatVFRVFRVFRVFRVFRVFRVFRVFRVFRVFRVFRVFRVFR
WX--------------------------
WDir7080806000005060606050
WSpd12 5 4 4 0 0 0 0 3 3 3 3 3
WGst-- -- -- -- -- -- -- -- -- -- -- -- --
Raw hourly METARs
KRNH 202255Z AUTO 07012KT 10SM SCT050 26/13 A2984 RMK AO2 T02550130
KRNH 202355Z AUTO 08005KT 10SM OVC090 24/13 A2986 RMK AO2 T02430132 10259 20240
KRNH 210055Z AUTO 08004KT 10SM OVC090 23/15 A2986 RMK AO2 T02340145
KRNH 210155Z AUTO 06004KT 10SM OVC100 22/15 A2985 RMK AO2 T02230154
KRNH 210255Z AUTO 00000KT 10SM BKN110 21/15 A2986 RMK AO2 T02110150
KRNH 210400Z AUTO 00000KT 10SM CLR 20/15 A2986 RMK AO2 T01950151
KRNH 210455Z AUTO 00000KT 10SM CLR 19/15 A2986 RMK AO2 T01870150
KRNH 210555Z AUTO 00000KT 10SM CLR 18/15 A2986 RMK AO2 T01820145 10243 20181 402590168
KRNH 210655Z AUTO 05003KT 10SM CLR 18/14 A2986 RMK AO2 T01750141
KRNH 210750Z AUTO 06003KT 10SM SCT100 17/14 A2986 RMK AO2 T01700141
KRNH 210855Z AUTO 06003KT 10SM CLR 17/15 A2986 RMK AO2 T01700145
KRNH 210955Z AUTO 06003KT 10SM CLR 17/14 A2987 RMK AO2 T01700142
KRNH 211055Z AUTO 05003KT 10SM SCT120 17/15 A2988 RMK AO2 T01670150



Page loaded:  11:49 UTC  |   04:49 AM Pacific  |   05:49 AM Mountain  |   06:49 AM Central  |   07:49 AM Eastern

 

ADVISORIES

FORECASTS

FORECASTS

OBSERVATIONS

USER TOOLS

ABOUT US